Nocc Atlantic — LAHZ7 — position and weather

sailwx.info

Track history (hours):
 
Tides and Currents Weather Stations Pressure Air Temp Water Temp Dewpoint Dewpoint Depression Visibility Wind Speed Wind Dir Waves Ship Positions

Nocc Atlantic

Last reported at 2017-Dec-16 14:07 UTC. Time now 2018-Jan-18 07:56 UTC.
Position S 36°26' E 175°12'.
Warning: this ship's position is 32 days out of date.

Length 200 m; draft 8.9 m.

Type: Cargo ship. MMSI: 259976000.

Date/timePositionNaut miles runAvg speedWind from/ knotsBaromVisibWave heightAir tempDewpointWater temp
2017-Dec-16 14:07S 36°26' E 175°12'1 9.7
2017-Dec-16 14:00S 36°26' E 175°11'5 9.9
2017-Dec-16 13:30S 36°30' E 175°06'5 9.8
2017-Dec-16 13:00S 36°33' E 175°02'5 9.7
2017-Dec-16 12:30S 36°36' E 174°58'5 9.0
2017-Dec-16 12:00S 36°40' E 174°54'5 9.3
2017-Dec-16 11:30S 36°44' E 174°51'510.0
2017-Dec-16 11:00S 36°49' E 174°50'3 6.4
2017-Dec-16 10:30S 36°50' E 174°46'0 0.0
2017-Dec-16 09:57S 36°50' E 174°46'0 0.0
2017-Dec-16 09:15S 36°50' E 174°46'0 0.0
2017-Dec-16 08:57S 36°50' E 174°46'0 0.0
2017-Dec-16 08:27S 36°50' E 174°46'0 0.0
2017-Dec-16 07:57S 36°50' E 174°46'0 0.0
2017-Dec-16 07:27S 36°50' E 174°46'0 0.0
2017-Dec-16 06:57S 36°50' E 174°46'0 0.0
2017-Dec-16 06:27S 36°50' E 174°46'0 0.0
2017-Dec-16 05:57S 36°50' E 174°46'0 0.0
2017-Dec-16 05:27S 36°50' E 174°46'0 0.0
2017-Dec-16 04:57S 36°50' E 174°46'0 0.0
2017-Dec-16 04:27S 36°50' E 174°46'0 0.0
2017-Dec-16 03:57S 36°50' E 174°46'0 0.0
2017-Dec-16 03:27S 36°50' E 174°46'0 0.0
2017-Dec-16 02:57S 36°50' E 174°46'0 0.0
2017-Dec-16 02:27S 36°50' E 174°46'0 0.0
2017-Dec-16 01:57S 36°50' E 174°46'0 0.0
2017-Dec-16 01:27S 36°50' E 174°46'0 0.0
2017-Dec-16 00:57S 36°50' E 174°46'0 0.0
2017-Dec-16 00:27S 36°50' E 174°46'0 0.0
2017-Dec-15 23:57S 36°50' E 174°46'0 0.0
2017-Dec-15 23:27S 36°50' E 174°46'0 0.0
2017-Dec-15 22:51S 36°50' E 174°46'0 0.0
2017-Dec-15 22:27S 36°50' E 174°46'0 0.0
2017-Dec-15 21:57S 36°50' E 174°46'0 0.0
2017-Dec-15 21:27S 36°50' E 174°46'0 0.0
2017-Dec-15 20:57S 36°50' E 174°46'0 0.0
2017-Dec-15 20:27S 36°50' E 174°46'0 0.0
2017-Dec-15 19:57S 36°50' E 174°46'0 0.0
2017-Dec-15 19:27S 36°50' E 174°46'0 0.0
2017-Dec-15 18:57S 36°50' E 174°46'0 0.0
2017-Dec-15 18:27S 36°50' E 174°46'0 0.0
2017-Dec-15 17:57S 36°50' E 174°46'0 0.0
2017-Dec-15 17:27S 36°50' E 174°46'0 0.4
2017-Dec-15 17:00S 36°50' E 174°46'3 6.3
2017-Dec-15 16:30S 36°49' E 174°50'510.4
2017-Dec-15 16:00S 36°44' E 174°51'3 6.1
2017-Dec-15 15:30S 36°41' E 174°53'4 7.7
2017-Dec-15 15:00S 36°38' E 174°56'4 8.5
2017-Dec-15 14:30S 36°35' E 174°59'4 8.2
2017-Dec-15 14:00S 36°31' E 175°01'4 7.4
2017-Dec-15 13:30S 36°28' E 175°01'4 8.7
2017-Dec-15 13:00S 36°23' E 175°00'3 6.4
2017-Dec-15 12:30S 36°20' E 174°60'4 8.5
2017-Dec-15 12:00S 36°16' E 174°59'4 8.4
2017-Dec-15 11:30S 36°12' E 174°58'  
2017-Dec-12 11:33S 18°28' E 178°17'615.3
2017-Dec-12 11:09S 18°23' E 178°20'215.4
2017-Dec-12 11:00S 18°21' E 178°21'815.2
2017-Dec-12 10:30S 18°13' E 178°23'611.3
2017-Dec-12 10:00S 18°08' E 178°24'1 2.3
2017-Dec-12 09:27S 18°08' E 178°25'0 0.0
2017-Dec-12 09:00S 18°08' E 178°25'0 0.0
2017-Dec-12 08:30S 18°08' E 178°25'0 0.0
2017-Dec-12 08:00S 18°08' E 178°25'0 0.0
2017-Dec-12 07:30S 18°08' E 178°25'0 0.0
2017-Dec-12 07:00S 18°08' E 178°25'0 0.0
2017-Dec-12 06:30S 18°08' E 178°25'0 0.0
2017-Dec-12 06:00S 18°08' E 178°25'0 0.0
2017-Dec-12 05:30S 18°08' E 178°25'0 0.0
2017-Dec-12 05:00S 18°08' E 178°25'0 0.0
2017-Dec-12 04:30S 18°08' E 178°25'0 0.0
2017-Dec-12 04:00S 18°08' E 178°25'0 0.0
2017-Dec-12 03:30S 18°08' E 178°25'0 0.0
2017-Dec-12 03:00S 18°08' E 178°25'0 0.0
2017-Dec-12 02:30S 18°08' E 178°25'0 0.0
2017-Dec-12 02:01S 18°08' E 178°25'1 2.5
2017-Dec-12 01:31S 18°08' E 178°24'3 6.7
2017-Dec-12 01:01S 18°11' E 178°23'4 7.2
2017-Dec-12 00:31S 18°15' E 178°22'611.4
2017-Dec-12 00:01S 18°20' E 178°21'4 7.1
2017-Dec-11 23:31S 18°24' E 178°20'  
Track history (hours):
 
Tides and Currents Weather Stations Pressure Air Temp Water Temp Dewpoint Dewpoint Depression Visibility Wind Speed Wind Dir Waves Ship Positions

Nocc Atlantic

Last reported at 2017-Dec-16 14:07 UTC. Time now 2018-Jan-18 07:56 UTC.
Position S 36°26' E 175°12'.
Warning: this ship's position is 32 days out of date.

Length 200 m; draft 8.9 m.

Type: Cargo ship. MMSI: 259976000.

Date/timePositionNaut miles runAvg speedWind from/ knotsBaromVisibWave heightAir tempDewpointWater temp
2017-Dec-16 14:07S 36°26' E 175°12'1 9.7
2017-Dec-16 14:00S 36°26' E 175°11'5 9.9
2017-Dec-16 13:30S 36°30' E 175°06'5 9.8
2017-Dec-16 13:00S 36°33' E 175°02'5 9.7
2017-Dec-16 12:30S 36°36' E 174°58'5 9.0
2017-Dec-16 12:00S 36°40' E 174°54'5 9.3
2017-Dec-16 11:30S 36°44' E 174°51'510.0
2017-Dec-16 11:00S 36°49' E 174°50'3 6.4
2017-Dec-16 10:30S 36°50' E 174°46'0 0.0
2017-Dec-16 09:57S 36°50' E 174°46'0 0.0
2017-Dec-16 09:15S 36°50' E 174°46'0 0.0
2017-Dec-16 08:57S 36°50' E 174°46'0 0.0
2017-Dec-16 08:27S 36°50' E 174°46'0 0.0
2017-Dec-16 07:57S 36°50' E 174°46'0 0.0
2017-Dec-16 07:27S 36°50' E 174°46'0 0.0
2017-Dec-16 06:57S 36°50' E 174°46'0 0.0
2017-Dec-16 06:27S 36°50' E 174°46'0 0.0
2017-Dec-16 05:57S 36°50' E 174°46'0 0.0
2017-Dec-16 05:27S 36°50' E 174°46'0 0.0
2017-Dec-16 04:57S 36°50' E 174°46'0 0.0
2017-Dec-16 04:27S 36°50' E 174°46'0 0.0
2017-Dec-16 03:57S 36°50' E 174°46'0 0.0
2017-Dec-16 03:27S 36°50' E 174°46'0 0.0
2017-Dec-16 02:57S 36°50' E 174°46'0 0.0
2017-Dec-16 02:27S 36°50' E 174°46'0 0.0
2017-Dec-16 01:57S 36°50' E 174°46'0 0.0
2017-Dec-16 01:27S 36°50' E 174°46'0 0.0
2017-Dec-16 00:57S 36°50' E 174°46'0 0.0
2017-Dec-16 00:27S 36°50' E 174°46'0 0.0
2017-Dec-15 23:57S 36°50' E 174°46'0 0.0
2017-Dec-15 23:27S 36°50' E 174°46'0 0.0
2017-Dec-15 22:51S 36°50' E 174°46'0 0.0
2017-Dec-15 22:27S 36°50' E 174°46'0 0.0
2017-Dec-15 21:57S 36°50' E 174°46'0 0.0
2017-Dec-15 21:27S 36°50' E 174°46'0 0.0
2017-Dec-15 20:57S 36°50' E 174°46'0 0.0
2017-Dec-15 20:27S 36°50' E 174°46'0 0.0
2017-Dec-15 19:57S 36°50' E 174°46'0 0.0
2017-Dec-15 19:27S 36°50' E 174°46'0 0.0
2017-Dec-15 18:57S 36°50' E 174°46'0 0.0
2017-Dec-15 18:27S 36°50' E 174°46'0 0.0
2017-Dec-15 17:57S 36°50' E 174°46'0 0.0
2017-Dec-15 17:27S 36°50' E 174°46'0 0.4
2017-Dec-15 17:00S 36°50' E 174°46'3 6.3
2017-Dec-15 16:30S 36°49' E 174°50'510.4
2017-Dec-15 16:00S 36°44' E 174°51'3 6.1
2017-Dec-15 15:30S 36°41' E 174°53'4 7.7
2017-Dec-15 15:00S 36°38' E 174°56'4 8.5
2017-Dec-15 14:30S 36°35' E 174°59'4 8.2
2017-Dec-15 14:00S 36°31' E 175°01'4 7.4
2017-Dec-15 13:30S 36°28' E 175°01'4 8.7
2017-Dec-15 13:00S 36°23' E 175°00'3 6.4
2017-Dec-15 12:30S 36°20' E 174°60'4 8.5
2017-Dec-15 12:00S 36°16' E 174°59'4 8.4
2017-Dec-15 11:30S 36°12' E 174°58'  
2017-Dec-12 11:33S 18°28' E 178°17'615.3
2017-Dec-12 11:09S 18°23' E 178°20'215.4
2017-Dec-12 11:00S 18°21' E 178°21'815.2
2017-Dec-12 10:30S 18°13' E 178°23'611.3
2017-Dec-12 10:00S 18°08' E 178°24'1 2.3
2017-Dec-12 09:27S 18°08' E 178°25'0 0.0
2017-Dec-12 09:00S 18°08' E 178°25'0 0.0
2017-Dec-12 08:30S 18°08' E 178°25'0 0.0
2017-Dec-12 08:00S 18°08' E 178°25'0 0.0
2017-Dec-12 07:30S 18°08' E 178°25'0 0.0
2017-Dec-12 07:00S 18°08' E 178°25'0 0.0
2017-Dec-12 06:30S 18°08' E 178°25'0 0.0
2017-Dec-12 06:00S 18°08' E 178°25'0 0.0
2017-Dec-12 05:30S 18°08' E 178°25'0 0.0
2017-Dec-12 05:00S 18°08' E 178°25'0 0.0
2017-Dec-12 04:30S 18°08' E 178°25'0 0.0
2017-Dec-12 04:00S 18°08' E 178°25'0 0.0
2017-Dec-12 03:30S 18°08' E 178°25'0 0.0
2017-Dec-12 03:00S 18°08' E 178°25'0 0.0
2017-Dec-12 02:30S 18°08' E 178°25'0 0.0
2017-Dec-12 02:01S 18°08' E 178°25'1 2.5
2017-Dec-12 01:31S 18°08' E 178°24'3 6.7
2017-Dec-12 01:01S 18°11' E 178°23'4 7.2
2017-Dec-12 00:31S 18°15' E 178°22'611.4
2017-Dec-12 00:01S 18°20' E 178°21'4 7.1
2017-Dec-11 23:31S 18°24' E 178°20'  

Dump ship's entire track history